createdAt,value
2017-09-06T00:00:31.143Z,24.08
2017-09-06T00:01:40.431Z,24.13
2017-09-06T00:02:49.719Z,24.16
2017-09-06T00:03:59.315Z,24.08
2017-09-06T00:05:08.301Z,24.05
2017-09-06T00:06:16.962Z,24.06
2017-09-06T00:07:25.945Z,24.08
2017-09-06T00:08:35.229Z,24.1
2017-09-06T00:09:44.196Z,23.97
2017-09-06T00:10:53.170Z,24.13
2017-09-06T00:12:02.772Z,24.15
2017-09-06T00:13:12.068Z,24.06
2017-09-06T00:14:21.062Z,24.08
2017-09-06T00:15:29.712Z,24.16
2017-09-06T00:16:38.683Z,24.12
2017-09-06T00:17:47.963Z,24.21
2017-09-06T00:18:56.625Z,24.2
2017-09-06T00:20:05.275Z,24.2
2017-09-06T00:21:14.250Z,24.05
2017-09-06T00:22:23.210Z,24.06
2017-09-06T00:23:32.191Z,24.06
2017-09-06T00:24:40.870Z,24.05
2017-09-06T00:25:49.845Z,24.2
2017-09-06T00:26:59.138Z,24.05
2017-09-06T00:28:08.767Z,24.16
2017-09-06T00:29:17.400Z,24.09
2017-09-06T00:30:26.063Z,24.1
2017-09-06T00:31:35.029Z,24.05
2017-09-06T00:32:43.997Z,24.2
2017-09-06T00:33:52.967Z,24.13
2017-09-06T00:35:01.937Z,24.15
2017-09-06T00:36:11.223Z,24.09
2017-09-06T00:37:20.512Z,24.08
2017-09-06T00:38:29.181Z,24.03
2017-09-06T00:39:37.837Z,24.08
2017-09-06T00:40:47.456Z,24.02
2017-09-06T00:41:56.747Z,24.02
2017-09-06T00:43:06.353Z,24.08
2017-09-06T00:44:15.024Z,24.08
2017-09-06T00:45:23.983Z,24.08
2017-09-06T00:46:33.594Z,24.08
2017-09-06T00:47:43.189Z,24.1
2017-09-06T00:48:52.186Z,24.06
2017-09-06T00:50:01.148Z,24.12
2017-09-06T00:51:10.766Z,24.09
2017-09-06T00:52:19.754Z,24.03
2017-09-06T00:53:29.080Z,24.2
2017-09-06T00:54:38.055Z,24.05
2017-09-06T00:55:47.029Z,24.18
2017-09-06T00:56:56.004Z,24.13
2017-09-06T00:58:05.297Z,24.06
2017-09-06T00:59:14.264Z,24.18
2017-09-06T01:00:23.234Z,24.15
2017-09-06T01:01:32.840Z,24.2
2017-09-06T01:02:41.808Z,24.08
2017-09-06T01:03:50.774Z,24.2
2017-09-06T01:04:59.441Z,24.2
2017-09-06T01:06:08.760Z,24.2
2017-09-06T01:07:17.726Z,24.1
2017-09-06T01:08:26.685Z,24.06
2017-09-06T01:09:35.971Z,24.2
2017-09-06T01:10:45.247Z,24.15
2017-09-06T01:11:53.939Z,24.08
2017-09-06T01:13:03.530Z,24.06
2017-09-06T01:14:12.504Z,24.16
2017-09-06T01:15:21.485Z,24.09
2017-09-06T01:16:30.145Z,24.09
2017-09-06T01:17:39.114Z,24.05
2017-09-06T01:18:48.108Z,24.02
2017-09-06T01:19:58.029Z,24.06
2017-09-06T01:21:06.683Z,24.08
2017-09-06T01:22:16.623Z,24.2
2017-09-06T01:23:26.226Z,24.08
2017-09-06T01:24:34.891Z,24.03
2017-09-06T01:25:44.168Z,24.18
2017-09-06T01:26:53.131Z,24.08
2017-09-06T01:28:02.423Z,24.16
2017-09-06T01:29:12.322Z,24.18
2017-09-06T01:30:20.981Z,24.12
2017-09-06T01:31:29.954Z,24.05
2017-09-06T01:32:38.597Z,24.15
2017-09-06T01:33:47.558Z,24.05
2017-09-06T01:34:56.532Z,24.09
2017-09-06T01:36:05.828Z,24.18
2017-09-06T01:37:14.481Z,24.08
2017-09-06T01:38:23.162Z,24.12
2017-09-06T01:39:31.835Z,24.1
2017-09-06T01:40:41.178Z,24.1
2017-09-06T01:41:49.826Z,24.15
2017-09-06T01:42:58.826Z,24.09
2017-09-06T01:44:07.838Z,24.13
2017-09-06T01:45:17.430Z,24.06
2017-09-06T01:46:26.712Z,24.09
2017-09-06T01:47:35.365Z,24.08
2017-09-06T01:48:44.959Z,24.1
2017-09-06T01:49:54.238Z,24.09
2017-09-06T01:51:02.890Z,24.13
2017-09-06T01:52:11.862Z,24.1
2017-09-06T01:53:20.835Z,24.15
2017-09-06T01:54:30.126Z,24.05
2017-09-06T01:55:39.724Z,24.08
2017-09-06T01:56:48.701Z,23.95
2017-09-06T01:57:57.673Z,24.05
2017-09-06T01:59:06.639Z,24.06
2017-09-06T02:00:15.606Z,23.94
2017-09-06T02:01:24.574Z,24.02
2017-09-06T02:02:33.231Z,24.08
2017-09-06T02:03:41.896Z,24.09
2017-09-06T02:04:50.873Z,24.03
2017-09-06T02:06:00.166Z,24.1
2017-09-06T02:07:09.453Z,24.06
2017-09-06T02:08:18.115Z,24.02
2017-09-06T02:09:26.774Z,24.08
2017-09-06T02:10:36.081Z,24.05
2017-09-06T02:11:44.746Z,24.02
2017-09-06T02:12:53.709Z,24.05
2017-09-06T02:14:02.991Z,23.95
2017-09-06T02:15:12.278Z,23.9
2017-09-06T02:16:21.243Z,23.9
2017-09-06T02:17:30.203Z,23.9
2017-09-06T02:18:38.868Z,23.88
2017-09-06T02:19:48.148Z,23.85
2017-09-06T02:20:57.125Z,23.94
2017-09-06T02:22:06.405Z,23.93
2017-09-06T02:23:15.699Z,23.94
2017-09-06T02:24:24.981Z,23.9
2017-09-06T02:25:33.951Z,23.94
2017-09-06T02:26:43.253Z,24
2017-09-06T02:27:52.539Z,23.98
2017-09-06T02:29:01.824Z,23.93
2017-09-06T02:30:10.481Z,23.9
2017-09-06T02:31:19.139Z,23.97
2017-09-06T02:32:27.799Z,23.9
2017-09-06T02:33:36.759Z,23.88
2017-09-06T02:34:46.393Z,23.91
2017-09-06T02:35:55.217Z,23.94
2017-09-06T02:37:04.185Z,23.97
2017-09-06T02:38:13.157Z,23.98
2017-09-06T02:39:22.117Z,23.95
2017-09-06T02:40:31.417Z,23.93
2017-09-06T02:41:40.739Z,23.93
2017-09-06T02:42:50.009Z,23.91
2017-09-06T02:43:58.671Z,23.91
2017-09-06T02:45:08.309Z,23.98
2017-09-06T02:46:18.227Z,23.95
2017-09-06T02:47:26.880Z,23.94
2017-09-06T02:48:35.873Z,23.95
2017-09-06T02:49:44.845Z,23.93
2017-09-06T02:50:54.151Z,23.94
2017-09-06T02:52:03.469Z,23.9
2017-09-06T02:53:12.422Z,23.94
2017-09-06T02:54:21.393Z,23.98
2017-09-06T02:55:30.364Z,23.9
2017-09-06T02:56:39.332Z,23.9
2017-09-06T02:57:48.635Z,23.9
2017-09-06T02:58:57.920Z,23.93
2017-09-06T03:00:06.886Z,23.83
2017-09-06T03:01:16.161Z,23.87
2017-09-06T03:02:24.812Z,23.87
2017-09-06T03:03:33.794Z,23.93
2017-09-06T03:04:43.407Z,23.94
2017-09-06T03:05:52.705Z,23.93
2017-09-06T03:07:01.689Z,23.95
2017-09-06T03:08:10.414Z,23.93
2017-09-06T03:09:19.063Z,23.95
2017-09-06T03:10:28.352Z,23.95
2017-09-06T03:11:37.956Z,23.88
2017-09-06T03:12:46.925Z,23.95
2017-09-06T03:13:55.900Z,23.97
2017-09-06T03:15:04.876Z,23.93
2017-09-06T03:16:14.492Z,23.91
2017-09-06T03:17:23.762Z,23.93
2017-09-06T03:18:33.363Z,23.98
2017-09-06T03:19:42.640Z,23.9
2017-09-06T03:20:52.235Z,23.93
2017-09-06T03:22:01.529Z,23.91
2017-09-06T03:23:10.501Z,24.02
2017-09-06T03:24:20.086Z,23.95
2017-09-06T03:25:29.679Z,24.03
2017-09-06T03:26:38.652Z,24.08
2017-09-06T03:27:47.446Z,23.98
2017-09-06T03:28:56.476Z,24
2017-09-06T03:30:05.772Z,23.93
2017-09-06T03:31:15.382Z,24.03
2017-09-06T03:32:24.041Z,24.05
2017-09-06T03:33:33.005Z,24.06
2017-09-06T03:34:41.981Z,23.88
2017-09-06T03:35:50.939Z,23.95
2017-09-06T03:37:00.230Z,24.03
2017-09-06T03:38:09.198Z,23.95
2017-09-06T03:39:18.331Z,23.98
2017-09-06T03:40:27.614Z,23.97
2017-09-06T03:41:36.891Z,23.9
2017-09-06T03:42:46.488Z,23.98
2017-09-06T03:43:55.451Z,23.84
2017-09-06T03:45:05.672Z,23.91
2017-09-06T03:46:15.267Z,23.94
2017-09-06T03:47:24.548Z,23.88
2017-09-06T03:48:33.202Z,23.9
2017-09-06T03:49:42.165Z,23.84
2017-09-06T03:50:50.823Z,23.87
2017-09-06T03:52:00.159Z,23.91
2017-09-06T03:53:09.119Z,23.87
2017-09-06T03:54:18.097Z,23.98
2017-09-06T03:55:27.054Z,23.9
2017-09-06T03:56:36.021Z,23.87
2017-09-06T03:57:44.680Z,23.84
2017-09-06T03:58:53.680Z,23.83
2017-09-06T04:00:02.327Z,23.72
2017-09-06T04:01:11.608Z,23.9
2017-09-06T04:02:20.583Z,23.7
2017-09-06T04:03:30.198Z,23.72
2017-09-06T04:04:38.848Z,23.68
2017-09-06T04:05:48.123Z,23.63
2017-09-06T04:06:57.411Z,23.55
2017-09-06T04:08:06.774Z,23.54
2017-09-06T04:09:15.731Z,23.53
2017-09-06T04:10:24.703Z,23.54
2017-09-06T04:11:33.989Z,23.47
2017-09-06T04:12:42.962Z,23.48
2017-09-06T04:13:52.258Z,23.46
2017-09-06T04:15:01.226Z,23.43
2017-09-06T04:16:10.815Z,23.36
2017-09-06T04:17:19.777Z,23.43
2017-09-06T04:18:28.762Z,23.39
2017-09-06T04:19:37.732Z,23.28
2017-09-06T04:20:47.019Z,23.23
2017-09-06T04:21:56.338Z,23.27
2017-09-06T04:23:05.621Z,23.17
2017-09-06T04:24:14.908Z,23.16
2017-09-06T04:25:24.194Z,23.22
2017-09-06T04:26:33.800Z,23.22
2017-09-06T04:27:42.758Z,23.15
2017-09-06T04:28:52.045Z,23.09
2017-09-06T04:30:00.693Z,23.15
2017-09-06T04:31:09.661Z,23.09
2017-09-06T04:32:18.622Z,23.02
2017-09-06T04:33:27.584Z,23.05
2017-09-06T04:34:36.235Z,22.98
2017-09-06T04:35:45.196Z,23.05
2017-09-06T04:36:54.794Z,23.05
2017-09-06T04:38:03.765Z,23
2017-09-06T04:39:12.733Z,23.05
2017-09-06T04:40:22.020Z,22.94
2017-09-06T04:41:30.984Z,22.91
2017-09-06T04:42:39.945Z,22.91
2017-09-06T04:43:49.235Z,22.9
2017-09-06T04:44:58.120Z,22.88
2017-09-06T04:46:08.027Z,22.88
2017-09-06T04:47:17.300Z,22.8
2017-09-06T04:48:26.596Z,22.86
2017-09-06T04:49:35.563Z,22.85
2017-09-06T04:50:44.529Z,22.85
2017-09-06T04:51:53.505Z,22.85
2017-09-06T04:53:02.785Z,22.9
2017-09-06T04:54:11.747Z,22.85
2017-09-06T04:55:21.342Z,22.76
2017-09-06T04:56:30.310Z,22.77
2017-09-06T04:57:39.267Z,22.82
2017-09-06T04:58:47.917Z,22.68
2017-09-06T04:59:56.569Z,22.82
2017-09-06T05:01:05.538Z,22.67
2017-09-06T05:02:14.828Z,22.68
2017-09-06T05:03:23.487Z,22.61
2017-09-06T05:04:32.779Z,22.6
2017-09-06T05:05:41.738Z,22.7
2017-09-06T05:06:50.404Z,22.7
2017-09-06T05:07:59.058Z,22.72
2017-09-06T05:09:08.035Z,22.64
2017-09-06T05:10:17.630Z,22.68
2017-09-06T05:11:26.293Z,22.72
2017-09-06T05:12:35.296Z,22.79
2017-09-06T05:13:44.270Z,22.82
2017-09-06T05:14:53.558Z,22.82
2017-09-06T05:16:02.537Z,22.86
2017-09-06T05:17:11.733Z,22.92
2017-09-06T05:18:20.931Z,22.91
2017-09-06T05:19:30.210Z,22.91
2017-09-06T05:20:38.858Z,22.83
2017-09-06T05:21:48.145Z,22.85
2017-09-06T05:22:57.427Z,22.9
2017-09-06T05:24:07.020Z,22.8
2017-09-06T05:25:15.985Z,22.79
2017-09-06T05:26:25.286Z,22.88
2017-09-06T05:27:34.277Z,22.92
2017-09-06T05:28:42.914Z,22.9
2017-09-06T05:29:51.591Z,22.9
2017-09-06T05:31:01.500Z,22.88
2017-09-06T05:32:10.857Z,22.92
2017-09-06T05:33:19.834Z,22.86
2017-09-06T05:34:28.818Z,22.9
2017-09-06T05:35:37.479Z,22.79
2017-09-06T05:36:46.770Z,22.83
2017-09-06T05:37:55.446Z,22.77
2017-09-06T05:39:05.085Z,22.82
2017-09-06T05:40:14.419Z,22.82
2017-09-06T05:41:23.394Z,22.79
2017-09-06T05:42:32.389Z,22.83
2017-09-06T05:43:41.696Z,22.79
2017-09-06T05:44:50.657Z,22.91
2017-09-06T05:45:59.628Z,22.91
2017-09-06T05:47:08.964Z,22.95
2017-09-06T05:48:18.265Z,23.04
2017-09-06T05:49:26.932Z,23.1
2017-09-06T05:50:35.916Z,23.16
2017-09-06T05:51:45.015Z,23.16
2017-09-06T05:52:53.704Z,23.16
2017-09-06T05:54:03.321Z,23.31
2017-09-06T05:55:12.323Z,23.27
2017-09-06T05:56:21.636Z,23.33
2017-09-06T05:57:30.291Z,23.51
2017-09-06T05:58:39.603Z,23.43
2017-09-06T05:59:48.624Z,23.58
2017-09-06T06:00:58.233Z,23.5
2017-09-06T06:02:07.217Z,23.63
2017-09-06T06:03:15.886Z,23.55
2017-09-06T06:04:24.875Z,23.66
2017-09-06T06:05:34.194Z,23.63
2017-09-06T06:06:43.475Z,23.73
2017-09-06T06:07:53.078Z,23.65
2017-09-06T06:09:02.054Z,23.75
2017-09-06T06:10:10.739Z,23.85
2017-09-06T06:11:20.024Z,23.69
2017-09-06T06:12:29.307Z,23.87
2017-09-06T06:13:38.609Z,23.9
2017-09-06T06:14:48.175Z,23.88
2017-09-06T06:15:56.883Z,23.98
2017-09-06T06:17:06.529Z,23.88
2017-09-06T06:18:15.482Z,23.95
2017-09-06T06:19:24.460Z,24.02
2017-09-06T06:20:34.051Z,24.06
2017-09-06T06:21:43.015Z,24.02
2017-09-06T06:22:52.314Z,24.09
2017-09-06T06:24:01.287Z,24.05
2017-09-06T06:25:10.591Z,24.1
2017-09-06T06:26:20.192Z,24.12
2017-09-06T06:27:28.858Z,24.13
2017-09-06T06:28:37.834Z,24.2
2017-09-06T06:29:47.139Z,24.27
2017-09-06T06:30:55.798Z,24.22
2017-09-06T06:32:04.765Z,24.18
2017-09-06T06:33:13.768Z,24.21
2017-09-06T06:34:22.413Z,24.32
2017-09-06T06:35:31.058Z,24.35
2017-09-06T06:36:39.712Z,24.3
2017-09-06T06:37:48.676Z,24.31
2017-09-06T06:38:58.279Z,24.4
2017-09-06T06:40:07.551Z,24.28
2017-09-06T06:41:16.525Z,24.35
2017-09-06T06:42:25.499Z,24.28
2017-09-06T06:43:34.777Z,24.34
2017-09-06T06:44:44.047Z,24.31
2017-09-06T06:45:53.014Z,24.43
2017-09-06T06:47:02.614Z,24.43
2017-09-06T06:48:11.588Z,24.37
2017-09-06T06:49:20.856Z,24.45
2017-09-06T06:50:30.482Z,24.53
2017-09-06T06:51:39.795Z,24.46
2017-09-06T06:52:48.478Z,24.43
2017-09-06T06:53:57.441Z,24.43
2017-09-06T06:55:06.107Z,24.31
2017-09-06T06:56:14.756Z,24.28
2017-09-06T06:57:24.040Z,24.47
2017-09-06T06:58:32.693Z,24.32
2017-09-06T06:59:41.672Z,24.37
2017-09-06T07:00:50.324Z,24.45
2017-09-06T07:01:58.988Z,24.32
2017-09-06T07:03:07.637Z,24.32
2017-09-06T07:04:16.922Z,24.47
2017-09-06T07:05:25.912Z,24.43
2017-09-06T07:06:34.878Z,24.34
2017-09-06T07:07:44.174Z,24.39
2017-09-06T07:08:53.158Z,24.45
2017-09-06T07:10:02.449Z,24.43
2017-09-06T07:11:11.721Z,24.45
2017-09-06T07:12:21.058Z,24.34
2017-09-06T07:13:30.333Z,24.4
2017-09-06T07:14:39.291Z,24.31
2017-09-06T07:15:48.306Z,24.37
2017-09-06T07:16:57.577Z,24.46
2017-09-06T07:18:06.549Z,24.4
2017-09-06T07:19:15.832Z,24.42
2017-09-06T07:20:24.490Z,24.42
2017-09-06T07:21:33.457Z,24.42
2017-09-06T07:22:42.120Z,24.32
2017-09-06T07:23:50.782Z,24.4
2017-09-06T07:25:00.062Z,24.39
2017-09-06T07:26:09.345Z,24.37
2017-09-06T07:27:18.313Z,24.4
2017-09-06T07:28:27.670Z,24.43
2017-09-06T07:29:36.327Z,24.46
2017-09-06T07:30:45.304Z,24.42
2017-09-06T07:31:54.280Z,24.46
2017-09-06T07:33:03.572Z,24.5
2017-09-06T07:34:12.535Z,24.47
2017-09-06T07:35:22.127Z,24.46
2017-09-06T07:36:30.919Z,24.49
2017-09-06T07:37:40.207Z,24.46
2017-09-06T07:38:49.177Z,24.47
2017-09-06T07:39:58.156Z,24.45
2017-09-06T07:41:07.182Z,24.5
2017-09-06T07:42:16.478Z,24.45
2017-09-06T07:43:25.203Z,24.46
2017-09-06T07:44:34.481Z,24.47
2017-09-06T07:45:43.450Z,24.49
2017-09-06T07:46:52.423Z,24.53
2017-09-06T07:48:01.704Z,24.52
2017-09-06T07:49:11.646Z,24.5
2017-09-06T07:50:20.613Z,24.5
2017-09-06T07:51:29.273Z,24.52
2017-09-06T07:52:38.258Z,24.47
2017-09-06T07:53:47.228Z,24.53
2017-09-06T07:54:56.516Z,24.5
2017-09-06T07:56:05.810Z,24.53
2017-09-06T07:57:14.782Z,24.52
2017-09-06T07:58:23.778Z,24.62
2017-09-06T07:59:33.380Z,24.57
2017-09-06T08:00:42.672Z,24.58
2017-09-06T08:01:51.962Z,24.57
2017-09-06T08:03:00.929Z,24.57
2017-09-06T08:04:10.202Z,24.62
2017-09-06T08:05:18.860Z,24.71
2017-09-06T08:06:28.149Z,24.69
2017-09-06T08:07:37.134Z,24.68
2017-09-06T08:08:46.128Z,24.68
2017-09-06T08:09:55.443Z,24.77
2017-09-06T08:11:05.358Z,24.73
2017-09-06T08:12:14.325Z,24.67
2017-09-06T08:13:22.977Z,24.61
2017-09-06T08:14:32.260Z,24.73
2017-09-06T08:15:41.217Z,24.65
2017-09-06T08:16:50.235Z,24.64
2017-09-06T08:17:59.217Z,24.62
2017-09-06T08:19:08.506Z,24.62
2017-09-06T08:20:17.169Z,24.57
2017-09-06T08:21:26.450Z,24.64
2017-09-06T08:22:36.055Z,24.65
2017-09-06T08:23:45.023Z,24.58
2017-09-06T08:24:54.937Z,24.57
2017-09-06T08:26:04.242Z,24.53
2017-09-06T08:27:12.914Z,24.53
2017-09-06T08:28:22.211Z,24.6
2017-09-06T08:29:31.499Z,24.62
2017-09-06T08:30:40.151Z,24.55
2017-09-06T08:31:49.435Z,24.57
2017-09-06T08:32:58.723Z,24.52
2017-09-06T08:34:07.398Z,24.61
2017-09-06T08:35:17.027Z,24.71
2017-09-06T08:36:25.676Z,24.71
2017-09-06T08:37:34.338Z,24.69
2017-09-06T08:38:42.991Z,24.76
2017-09-06T08:39:51.970Z,24.73
2017-09-06T08:41:00.946Z,24.8
2017-09-06T08:42:09.605Z,24.84
2017-09-06T08:43:18.605Z,24.78
2017-09-06T08:44:27.594Z,24.91
2017-09-06T08:45:36.894Z,24.91
2017-09-06T08:46:46.187Z,24.9
2017-09-06T08:47:54.835Z,24.98
2017-09-06T08:49:03.826Z,25
2017-09-06T08:50:12.793Z,25
2017-09-06T08:51:22.101Z,25.03
2017-09-06T08:52:30.809Z,25
2017-09-06T08:53:39.460Z,25.09
2017-09-06T08:54:48.444Z,25.03
2017-09-06T08:55:57.732Z,25.14
2017-09-06T08:57:06.722Z,25.1
2017-09-06T08:58:15.712Z,25.03
2017-09-06T08:59:24.705Z,24.99
2017-09-06T09:00:33.383Z,25
2017-09-06T09:01:42.049Z,24.98
2017-09-06T09:02:51.651Z,24.96
2017-09-06T09:04:00.332Z,24.98
2017-09-06T09:05:09.309Z,24.95
2017-09-06T09:06:18.604Z,24.91
2017-09-06T09:07:27.906Z,24.93
2017-09-06T09:08:37.521Z,24.9
2017-09-06T09:09:47.480Z,24.98
2017-09-06T09:10:56.137Z,24.91
2017-09-06T09:12:05.108Z,24.95
2017-09-06T09:13:14.711Z,24.93
2017-09-06T09:14:23.989Z,24.91
2017-09-06T09:15:32.692Z,24.91
2017-09-06T09:16:41.665Z,24.88
2017-09-06T09:17:50.638Z,24.81
2017-09-06T09:18:59.614Z,24.81
2017-09-06T09:20:08.585Z,24.77
2017-09-06T09:21:17.589Z,24.8
2017-09-06T09:22:26.554Z,24.78
2017-09-06T09:23:35.853Z,24.81
2017-09-06T09:24:45.146Z,24.77
2017-09-06T09:25:53.835Z,24.8
2017-09-06T09:27:02.823Z,24.8
2017-09-06T09:28:12.109Z,24.8
2017-09-06T09:29:20.762Z,24.9
2017-09-06T09:30:30.041Z,24.85
2017-09-06T09:31:39.338Z,24.83
2017-09-06T09:32:48.631Z,24.81
2017-09-06T09:33:57.915Z,24.8
2017-09-06T09:35:07.212Z,24.87
2017-09-06T09:36:16.516Z,24.83
2017-09-06T09:37:25.183Z,24.83
2017-09-06T09:38:34.821Z,24.77
2017-09-06T09:39:44.447Z,24.81
2017-09-06T09:40:53.428Z,24.81
2017-09-06T09:42:02.405Z,24.76
2017-09-06T09:43:11.378Z,24.83
2017-09-06T09:44:20.362Z,24.78
2017-09-06T09:45:29.349Z,24.73
2017-09-06T09:46:38.013Z,24.8
2017-09-06T09:47:47.298Z,24.8
2017-09-06T09:48:56.596Z,24.78
2017-09-06T09:50:05.267Z,24.84
2017-09-06T09:51:14.256Z,24.76
2017-09-06T09:52:22.914Z,24.8
2017-09-06T09:53:32.540Z,24.85
2017-09-06T09:54:41.513Z,24.78
2017-09-06T09:55:50.165Z,24.77
2017-09-06T09:56:59.165Z,24.83
2017-09-06T09:58:08.466Z,24.84
2017-09-06T10:00:26.137Z,24.83
2017-09-06T10:01:35.753Z,24.85
2017-09-06T10:02:44.722Z,24.85
2017-09-06T10:03:53.696Z,24.73
2017-09-06T10:05:02.679Z,24.8
2017-09-06T10:06:11.995Z,24.8
2017-09-06T10:07:21.291Z,24.69
2017-09-06T10:08:31.231Z,24.76
2017-09-06T10:09:40.201Z,24.8
2017-09-06T10:10:49.477Z,24.85
2017-09-06T10:11:58.137Z,24.87
2017-09-06T10:13:07.756Z,24.84
2017-09-06T10:14:17.039Z,24.81
2017-09-06T10:15:26.340Z,24.84
2017-09-06T10:16:35.323Z,24.78
2017-09-06T10:17:44.622Z,24.9
2017-09-06T10:18:53.604Z,24.88
2017-09-06T10:20:02.266Z,24.88
2017-09-06T10:21:11.307Z,24.9
2017-09-06T10:22:21.247Z,24.88
2017-09-06T10:23:29.920Z,24.93
2017-09-06T10:24:38.897Z,24.88
2017-09-06T10:25:47.860Z,24.83
2017-09-06T10:26:57.141Z,24.9
2017-09-06T10:28:06.112Z,24.91
2017-09-06T10:29:15.074Z,24.95
2017-09-06T10:30:24.044Z,24.95
2017-09-06T10:31:33.045Z,24.96
2017-09-06T10:32:42.327Z,24.98
2017-09-06T10:33:52.264Z,25.03
2017-09-06T10:35:01.865Z,25.05
2017-09-06T10:36:10.520Z,25.03
2017-09-06T10:37:19.174Z,25.1
2017-09-06T10:38:28.134Z,25.09
2017-09-06T10:39:38.050Z,25.02
2017-09-06T10:40:47.037Z,25
2017-09-06T10:41:55.706Z,24.95
2017-09-06T10:43:05.308Z,24.93
2017-09-06T10:44:14.276Z,24.96
2017-09-06T10:45:23.891Z,24.96
2017-09-06T10:46:32.864Z,24.95
2017-09-06T10:47:41.554Z,24.93
2017-09-06T10:48:50.527Z,24.88
2017-09-06T10:49:59.262Z,24.93
2017-09-06T10:51:08.566Z,24.96
2017-09-06T10:52:17.550Z,24.95
2017-09-06T10:53:26.839Z,24.95
2017-09-06T10:54:36.125Z,24.93
2017-09-06T10:55:44.783Z,25.03
2017-09-06T10:56:54.088Z,25.05
2017-09-06T10:58:03.060Z,25.02
2017-09-06T10:59:11.718Z,25
2017-09-06T11:00:20.378Z,25
2017-09-06T11:01:29.358Z,25.08
2017-09-06T11:02:38.339Z,24.99
2017-09-06T11:03:47.000Z,25.03
2017-09-06T11:04:56.283Z,24.93
2017-09-06T11:06:05.254Z,25.06
2017-09-06T11:07:14.230Z,24.99
2017-09-06T11:08:22.879Z,25.06
2017-09-06T11:09:32.183Z,25.02
2017-09-06T11:10:41.469Z,24.99
2017-09-06T11:11:50.120Z,25.08
2017-09-06T11:12:59.100Z,24.98
2017-09-06T11:14:08.076Z,25.1
2017-09-06T11:15:17.070Z,25.03
2017-09-06T11:16:25.742Z,25.05
2017-09-06T11:17:35.034Z,25
2017-09-06T11:18:44.663Z,25.05
2017-09-06T11:19:53.960Z,25.13
2017-09-06T11:21:03.520Z,25.1
2017-09-06T11:22:12.495Z,25.14
2017-09-06T11:23:21.787Z,25.1
2017-09-06T11:24:30.463Z,25.1
2017-09-06T11:25:40.077Z,25.15
2017-09-06T11:26:49.370Z,25.18
2017-09-06T11:27:58.062Z,25.14
2017-09-06T11:29:06.725Z,25.21
2017-09-06T11:30:16.240Z,25.21
2017-09-06T11:31:25.529Z,25.13
2017-09-06T11:32:34.197Z,25.14
2017-09-06T11:33:44.129Z,25.17
2017-09-06T11:34:53.131Z,25.13
2017-09-06T11:36:02.424Z,25.14
2017-09-06T11:37:11.727Z,25.1
2017-09-06T11:38:20.442Z,25.13
2017-09-06T11:39:29.448Z,25.13
2017-09-06T11:40:38.422Z,25.09
2017-09-06T11:41:47.099Z,25.06
2017-09-06T11:42:56.399Z,25.09
2017-09-06T11:44:05.392Z,25.13
2017-09-06T11:45:14.051Z,25.09
2017-09-06T11:46:22.711Z,25.1
2017-09-06T11:47:32.003Z,25.1
2017-09-06T11:48:40.669Z,25.17
2017-09-06T11:49:49.641Z,25.15
2017-09-06T11:50:58.312Z,25.2
2017-09-06T11:52:06.968Z,25.18
2017-09-06T11:53:16.249Z,25.17
2017-09-06T11:54:25.537Z,25.18
2017-09-06T11:55:34.190Z,25.17
2017-09-06T11:56:43.501Z,25.21
2017-09-06T11:57:52.467Z,25.15
2017-09-06T11:59:01.777Z,25.2
2017-09-06T12:00:10.444Z,25.15
2017-09-06T12:01:19.438Z,25.13
2017-09-06T12:02:28.104Z,25.13
2017-09-06T12:03:37.123Z,25.15
2017-09-06T12:04:46.477Z,25.13
2017-09-06T12:05:55.766Z,25.2
2017-09-06T12:07:04.428Z,25.2
2017-09-06T12:08:13.073Z,25.15
2017-09-06T12:09:22.379Z,25.14
2017-09-06T12:10:31.349Z,25.17
2017-09-06T12:11:40.950Z,25.09
2017-09-06T12:12:50.562Z,25.08
2017-09-06T12:13:59.870Z,25.08
2017-09-06T12:15:08.853Z,25.06
2017-09-06T12:16:17.518Z,25.1
2017-09-06T12:17:26.493Z,25.09
2017-09-06T12:18:35.779Z,25.1
2017-09-06T12:19:44.768Z,25.06
2017-09-06T12:20:53.739Z,25.06
2017-09-06T12:22:02.402Z,25.14
2017-09-06T12:23:11.707Z,25.06
2017-09-06T12:24:20.725Z,25.09
2017-09-06T12:25:29.709Z,25.08
2017-09-06T12:26:38.676Z,25.09
2017-09-06T12:27:47.976Z,25.14
2017-09-06T12:28:56.942Z,25.17
2017-09-06T12:30:06.635Z,25.15
2017-09-06T12:31:15.614Z,25.15
2017-09-06T12:32:24.898Z,25.18
2017-09-06T12:33:33.861Z,25.24
2017-09-06T12:34:42.824Z,25.2
2017-09-06T12:35:51.488Z,25.24
2017-09-06T12:37:00.449Z,25.23
2017-09-06T12:38:09.410Z,25.2
2017-09-06T12:39:18.081Z,25.24
2017-09-06T12:40:26.735Z,25.18
2017-09-06T12:41:35.391Z,25.15
2017-09-06T12:42:44.693Z,25.18
2017-09-06T12:43:53.665Z,25.15
2017-09-06T12:45:03.266Z,25.17
2017-09-06T12:46:12.594Z,25.2
2017-09-06T12:47:21.892Z,25.18
2017-09-06T12:48:30.872Z,25.17
2017-09-06T12:49:40.146Z,25.15
2017-09-06T12:50:49.348Z,25.18
2017-09-06T12:51:58.636Z,25.2
2017-09-06T12:53:08.251Z,25.25
2017-09-06T12:54:17.541Z,25.23
2017-09-06T12:55:26.511Z,25.21
2017-09-06T12:56:35.493Z,25.17
2017-09-06T12:57:45.098Z,25.2
2017-09-06T12:58:54.395Z,25.18
2017-09-06T13:00:03.985Z,25.21
2017-09-06T13:01:13.325Z,25.21
2017-09-06T13:02:22.329Z,25.27
2017-09-06T13:03:31.609Z,25.18
2017-09-06T13:04:40.257Z,25.25
2017-09-06T13:05:49.864Z,25.28
2017-09-06T13:06:59.470Z,25.24
2017-09-06T13:08:08.436Z,25.32
2017-09-06T13:09:17.105Z,25.21
2017-09-06T13:10:26.084Z,25.21
2017-09-06T13:11:34.746Z,25.24
2017-09-06T13:12:43.718Z,25.24
2017-09-06T13:13:52.691Z,25.21
2017-09-06T13:15:01.343Z,25.18
2017-09-06T13:16:10.459Z,25.2
2017-09-06T13:17:19.120Z,25.18
2017-09-06T13:18:27.859Z,25.17
2017-09-06T13:19:36.519Z,25.17
2017-09-06T13:20:45.485Z,25.09
2017-09-06T13:21:54.776Z,25.1
2017-09-06T13:23:03.428Z,25.09
2017-09-06T13:24:12.396Z,25.09
2017-09-06T13:25:22.008Z,25.1
2017-09-06T13:26:31.293Z,25.08
2017-09-06T13:27:40.608Z,25.1
2017-09-06T13:28:50.229Z,25.14
2017-09-06T13:29:59.518Z,25.15
2017-09-06T13:31:08.805Z,25.15
2017-09-06T13:32:17.805Z,25.17
2017-09-06T13:33:27.425Z,25.2
2017-09-06T13:34:37.037Z,25.14
2017-09-06T13:35:46.020Z,25.2
2017-09-06T13:36:54.690Z,25.17
2017-09-06T13:38:04.295Z,25.18
2017-09-06T13:39:13.275Z,25.18
2017-09-06T13:40:22.889Z,25.18
2017-09-06T13:41:31.881Z,25.14
2017-09-06T13:42:40.845Z,25.14
2017-09-06T13:43:49.513Z,25.2
2017-09-06T13:44:58.816Z,25.21
2017-09-06T13:46:08.415Z,25.17
2017-09-06T13:47:17.399Z,25.2
2017-09-06T13:48:27.002Z,25.24
2017-09-06T13:49:35.982Z,25.24
2017-09-06T13:50:45.298Z,25.2
2017-09-06T13:51:54.282Z,25.15
2017-09-06T13:53:03.271Z,25.2
2017-09-06T13:54:12.260Z,25.25
2017-09-06T13:55:21.232Z,25.27
2017-09-06T13:56:30.837Z,25.3
2017-09-06T13:57:40.127Z,25.21
2017-09-06T13:58:48.804Z,25.18
2017-09-06T13:59:58.104Z,25.28
2017-09-06T14:01:07.716Z,25.2
2017-09-06T14:02:16.692Z,25.18
2017-09-06T14:03:26.305Z,25.18
2017-09-06T14:04:34.968Z,25.23
2017-09-06T14:05:44.274Z,25.23
2017-09-06T14:06:53.262Z,25.21
2017-09-06T14:08:02.248Z,25.17
2017-09-06T14:09:10.913Z,25.14
2017-09-06T14:10:19.573Z,25.2
2017-09-06T14:11:28.543Z,25.14
2017-09-06T14:12:38.144Z,25.17
2017-09-06T14:13:47.116Z,25.17
2017-09-06T14:14:56.406Z,25.21
2017-09-06T14:16:05.056Z,25.15
2017-09-06T14:17:14.036Z,25.13
2017-09-06T14:18:23.330Z,25.13
2017-09-06T14:19:31.981Z,25.17
2017-09-06T14:20:40.946Z,25.15
2017-09-06T14:21:50.230Z,25.15
2017-09-06T14:22:58.889Z,25.18
2017-09-06T14:24:07.566Z,25.2
2017-09-06T14:25:16.862Z,25.17
2017-09-06T14:26:25.836Z,25.14
2017-09-06T14:27:35.430Z,25.1
2017-09-06T14:28:44.716Z,25.18
2017-09-06T14:29:53.684Z,25.18
2017-09-06T14:31:03.603Z,25.18
2017-09-06T14:32:12.578Z,25.14
2017-09-06T14:33:21.575Z,25.13
2017-09-06T14:34:30.234Z,25.13
2017-09-06T14:35:38.901Z,25.17
2017-09-06T14:36:48.500Z,25.17
2017-09-06T14:37:57.480Z,25.14
2017-09-06T14:39:06.465Z,25.06
2017-09-06T14:40:15.744Z,25.15
2017-09-06T14:41:24.423Z,25.09
2017-09-06T14:42:33.236Z,25.06
2017-09-06T14:43:42.543Z,25.08
2017-09-06T14:44:51.864Z,25.06
2017-09-06T14:46:00.832Z,25.06
2017-09-06T14:47:09.513Z,25.1
2017-09-06T14:48:18.807Z,25.06
2017-09-06T14:49:27.777Z,25.06
2017-09-06T14:50:37.064Z,25.06
2017-09-06T14:51:46.052Z,25.1
2017-09-06T14:52:55.339Z,25.09
2017-09-06T14:54:04.312Z,24.99
2017-09-06T14:55:13.288Z,25.09
2017-09-06T14:56:22.912Z,25.06